Fure West — OZ2100 — position and weather

sailwx.info

Track history (hours):
 
Tides and Currents Weather Stations Pressure Air Temp Water Temp Dewpoint Dewpoint Depression Visibility Wind Speed Wind Dir Waves Ship Positions

Fure West

Last reported at 2015-Mar-05 02:20 UTC. Time now 2015-Mar-05 04:12 UTC.
Position N 56°25' E 011°31'.

Length 144 m; draft 6.2 m.

Type: Tanker. MMSI: 231775000.

Date/timePositionNaut miles runAvg speedWind from/ knotsBaromVisibWave heightAir tempDewpointWater temp
2015-Mar-05 02:20N 56°25' E 011°31'1012.4
2015-Mar-05 01:33N 56°34' E 011°40'1312.6
2015-Mar-05 00:33N 56°45' E 011°50'1212.5
2015-Mar-04 23:33N 56°57' E 011°44'1212.4
2015-Mar-04 22:33N 57°08' E 011°36'1212.0
2015-Mar-04 21:34N 57°20' E 011°35'1212.2
2015-Mar-04 20:34N 57°33' E 011°36'1111.2
2015-Mar-04 19:33N 57°41' E 011°50'1 1.2
2015-Mar-04 18:31N 57°41' E 011°52'0 0.0
2015-Mar-04 17:31N 57°41' E 011°52'0 0.0
2015-Mar-02 17:16N 57°41' E 011°52'1 1.2
2015-Mar-02 16:33N 57°41' E 011°51'9 9.1
2015-Mar-02 15:32N 57°34' E 011°40'0 0.1
2015-Mar-02 14:32N 57°34' E 011°40'0 0.0
2015-Mar-02 13:32N 57°34' E 011°40'0 0.0
2015-Mar-02 12:32N 57°34' E 011°40'5 5.1
2015-Mar-02 11:33N 57°36' E 011°32'1111.1
2015-Mar-02 10:33N 57°42' E 011°14'1210.5
2015-Mar-02 09:23N 57°47' E 010°53'910.4
2015-Mar-02 08:31N 57°48' E 010°36'7512.3
2015-Mar-02 02:24N 57°13' E 008°32'10212.8
2015-Mar-01 18:26N 55°39' E 007°20'1011.9
2015-Mar-01 17:34N 55°29' E 007°22'10 9.6
2015-Mar-01 16:33N 55°19' E 007°23'1110.6
2015-Mar-01 15:33N 55°09' E 007°25'1312.2
2015-Mar-01 14:30N 54°56' E 007°26'1111.8
2015-Mar-01 13:33N 54°45' E 007°28'1211.9
2015-Mar-01 12:33N 54°33' E 007°29'1212.2
2015-Mar-01 11:33N 54°21' E 007°31'1211.9
2015-Mar-01 10:33N 54°10' E 007°38'4 4.2
2015-Mar-01 09:33N 54°09' E 007°31'1313.1
2015-Mar-01 08:33N 54°09' E 007°09'3213.1
2015-Mar-01 06:07N 54°08' E 006°15'712.8
2015-Mar-01 05:32N 54°07' E 006°02'1312.9
2015-Mar-01 04:33N 54°05' E 005°41'1312.6
2015-Mar-01 03:33N 54°03' E 005°19'1211.6
2015-Mar-01 02:33N 54°02' E 004°60'17311.4
2015-Feb-28 11:22N 51°36' E 002°24'911.6
2015-Feb-28 10:33N 51°29' E 002°14'1313.2
2015-Feb-28 09:33N 51°17' E 002°05'1313.5
2015-Feb-28 08:34N 51°08' E 001°49'1514.6
2015-Feb-28 07:34N 50°58' E 001°32'8911.1
2015-Feb-27 23:33N 50°31' W 000°42'1111.4
2015-Feb-27 22:33N 50°36' W 000°58'3 2.3
2015-Feb-27 21:13N 50°37' W 001°02'0 0.0
2015-Feb-27 20:31N 50°37' W 001°02'0 0.0
2015-Feb-27 19:31N 50°37' W 001°02'0 0.2
2015-Feb-27 18:31N 50°38' W 001°02'0 0.1
2015-Feb-27 17:31N 50°38' W 001°01'0 0.0
2015-Feb-27 16:31N 50°38' W 001°01'0 0.0
2015-Feb-27 15:31N 50°38' W 001°01'0 0.0
2015-Feb-27 14:31N 50°38' W 001°01'0 0.0
2015-Feb-27 13:31N 50°38' W 001°01'0 0.0
2015-Feb-27 12:31N 50°38' W 001°02'0 0.1
2015-Feb-27 11:31N 50°38' W 001°02'0 0.1
2015-Feb-27 10:22N 50°38' W 001°02'0 0.0
2015-Feb-27 09:31N 50°38' W 001°02'0 0.0
2015-Feb-27 08:31N 50°38' W 001°02'0 0.0
2015-Feb-27 07:31N 50°38' W 001°02'0 0.0
2015-Feb-27 06:31N 50°38' W 001°02'0 0.2
2015-Feb-27 05:31N 50°38' W 001°01'0 0.1
2015-Feb-27 04:31N 50°38' W 001°01'0 0.0
2015-Feb-27 03:31N 50°38' W 001°01'0 0.0
2015-Feb-27 02:31N 50°38' W 001°01'0 0.0
2015-Feb-27 01:31N 50°38' W 001°01'0 0.0
2015-Feb-27 00:31N 50°38' W 001°01'0 0.0
2015-Feb-26 23:31N 50°38' W 001°01'0 0.1
2015-Feb-26 22:31N 50°38' W 001°02'0 0.1
2015-Feb-26 21:31N 50°38' W 001°02'0 0.0
2015-Feb-26 20:31N 50°38' W 001°02'0 0.0
2015-Feb-26 19:31N 50°38' W 001°02'0 0.0
2015-Feb-26 18:31N 50°38' W 001°02'0 0.2
2015-Feb-26 17:31N 50°38' W 001°01'0 0.1
2015-Feb-26 16:31N 50°38' W 001°01'0 0.0
2015-Feb-26 15:31N 50°38' W 001°01'0 0.0
2015-Feb-26 14:31N 50°38' W 001°01'0 0.0
2015-Feb-26 13:31N 50°38' W 001°01'0 0.0
2015-Feb-26 12:28N 50°38' W 001°01'0 0.0
2015-Feb-26 11:31N 50°38' W 001°01'0 0.0
2015-Feb-26 10:31N 50°38' W 001°01'0 0.2
2015-Feb-26 09:31N 50°38' W 001°02'0 0.1
2015-Feb-26 08:22N 50°37' W 001°02'0 0.0
2015-Feb-26 07:31N 50°37' W 001°02'0 0.0
2015-Feb-26 06:31N 50°37' W 001°02'0 0.0
2015-Feb-26 05:31N 50°37' W 001°02'0 0.2
2015-Feb-26 04:31N 50°38' W 001°02'0 0.1
2015-Feb-26 03:31N 50°38' W 001°01'0 0.0
2015-Feb-26 02:31N 50°38' W 001°01'0 0.0
2015-Feb-26 01:31N 50°38' W 001°01'0 0.0
2015-Feb-26 00:31N 50°38' W 001°01'0 0.0
2015-Feb-25 23:31N 50°38' W 001°01'0 0.0
2015-Feb-25 22:31N 50°38' W 001°01'0 0.1
2015-Feb-25 21:31N 50°38' W 001°02'0 0.1
2015-Feb-25 20:31N 50°37' W 001°02'0 0.0
2015-Feb-25 19:31N 50°37' W 001°02'0 0.0
2015-Feb-25 18:31N 50°37' W 001°02'0 0.0
2015-Feb-25 17:31N 50°37' W 001°02'0 0.0
2015-Feb-25 16:31N 50°37' W 001°02'0 0.2
2015-Feb-25 15:31N 50°38' W 001°01'0 0.0
2015-Feb-25 14:31N 50°38' W 001°01'0 0.0
2015-Feb-25 13:31N 50°38' W 001°01'0 0.0
2015-Feb-25 12:31N 50°38' W 001°01'0 0.0
2015-Feb-25 11:31N 50°38' W 001°01'0 0.0
2015-Feb-25 10:31N 50°38' W 001°01'0 0.0
2015-Feb-25 09:31N 50°38' W 001°01'0 0.2
2015-Feb-25 08:31N 50°37' W 001°02'0 0.0
2015-Feb-25 07:31N 50°37' W 001°02'0 0.0
2015-Feb-25 06:31N 50°37' W 001°02'0 0.0
2015-Feb-25 05:31N 50°37' W 001°02'0 0.0
2015-Feb-25 04:31N 50°37' W 001°02'0 0.3
2015-Feb-25 03:31N 50°38' W 001°01'0 0.0
2015-Feb-25 02:31N 50°38' W 001°01'0 0.0
2015-Feb-25 01:31N 50°38' W 001°01'0 0.0
2015-Feb-25 00:28N 50°38' W 001°01'0 0.0
2015-Feb-24 23:31N 50°38' W 001°01'0 0.0
2015-Feb-24 22:31N 50°38' W 001°01'0 0.0
2015-Feb-24 21:31N 50°38' W 001°01'0 0.2
2015-Feb-24 20:31N 50°38' W 001°02'0 0.0
2015-Feb-24 19:31N 50°38' W 001°02'0 0.0
2015-Feb-24 18:31N 50°38' W 001°02'0 0.0
2015-Feb-24 17:31N 50°38' W 001°02'0 0.0
2015-Feb-24 16:31N 50°38' W 001°02'0 0.2
2015-Feb-24 15:31N 50°38' W 001°01'0 0.1
2015-Feb-24 14:28N 50°38' W 001°01'0 0.0
2015-Feb-24 13:31N 50°38' W 001°01'0 0.0
2015-Feb-24 12:31N 50°38' W 001°01'0 0.0
2015-Feb-24 11:31N 50°38' W 001°01'0 0.0
2015-Feb-24 10:31N 50°38' W 001°01'0 0.1
2015-Feb-24 09:33N 50°38' W 001°01'3 3.0
2015-Feb-24 08:33N 50°37' W 000°57'4 4.1
2015-Feb-24 07:33N 50°36' W 000°51'1 1.1
2015-Feb-24 06:33N 50°35' W 000°52'4 3.7
2015-Feb-24 05:33N 50°34' W 000°58'4 3.9
2015-Feb-24 04:33N 50°32' W 001°03'1 1.1
2015-Feb-24 03:33N 50°33' W 001°03'3 2.7
2015-Feb-24 02:33N 50°34' W 000°59'2 2.1
2015-Feb-24 01:33N 50°34' W 000°55'2 1.6
2015-Feb-24 00:33N 50°34' W 000°53'1 0.8
2015-Feb-23 23:33N 50°34' W 000°51'0 0.1
2015-Feb-23 22:33N 50°34' W 000°51'0 0.3
2015-Feb-23 21:33N 50°34' W 000°51'2 1.9
2015-Feb-23 20:33N 50°35' W 000°49'0 0.3
2015-Feb-23 19:33N 50°36' W 000°48'5 4.5
2015-Feb-23 18:33N 50°34' W 000°55'4 4.1
2015-Feb-23 17:33N 50°34' W 001°01'3 3.2
2015-Feb-23 16:30N 50°37' W 001°02'0 0.2
2015-Feb-23 15:33N 50°38' W 001°02'0 0.3
2015-Feb-23 14:33N 50°38' W 001°01'0 0.0
2015-Feb-23 13:33N 50°38' W 001°01'0 0.0
2015-Feb-23 12:33N 50°38' W 001°01'0 0.1
2015-Feb-23 11:33N 50°38' W 001°01'0 0.0
2015-Feb-23 10:33N 50°38' W 001°01'0 0.0
2015-Feb-23 09:33N 50°38' W 001°01'0 0.1
2015-Feb-23 08:33N 50°38' W 001°02'0 0.1
2015-Feb-23 07:33N 50°38' W 001°02'0 0.2
2015-Feb-23 06:33N 50°38' W 001°02'3 3.0
2015-Feb-23 05:33N 50°35' W 001°03'3 2.7
2015-Feb-23 04:33N 50°34' W 000°59'1 1.4
2015-Feb-23 03:33N 50°34' W 000°57'0 0.2
2015-Feb-23 02:33N 50°34' W 000°57'  
Track history (hours):
 
Tides and Currents Weather Stations Pressure Air Temp Water Temp Dewpoint Dewpoint Depression Visibility Wind Speed Wind Dir Waves Ship Positions

Fure West

Last reported at 2015-Mar-05 02:20 UTC. Time now 2015-Mar-05 04:12 UTC.
Position N 56°25' E 011°31'.

Length 144 m; draft 6.2 m.

Type: Tanker. MMSI: 231775000.

Date/timePositionNaut miles runAvg speedWind from/ knotsBaromVisibWave heightAir tempDewpointWater temp
2015-Mar-05 02:20N 56°25' E 011°31'1012.4
2015-Mar-05 01:33N 56°34' E 011°40'1312.6
2015-Mar-05 00:33N 56°45' E 011°50'1212.5
2015-Mar-04 23:33N 56°57' E 011°44'1212.4
2015-Mar-04 22:33N 57°08' E 011°36'1212.0
2015-Mar-04 21:34N 57°20' E 011°35'1212.2
2015-Mar-04 20:34N 57°33' E 011°36'1111.2
2015-Mar-04 19:33N 57°41' E 011°50'1 1.2
2015-Mar-04 18:31N 57°41' E 011°52'0 0.0
2015-Mar-04 17:31N 57°41' E 011°52'0 0.0
2015-Mar-02 17:16N 57°41' E 011°52'1 1.2
2015-Mar-02 16:33N 57°41' E 011°51'9 9.1
2015-Mar-02 15:32N 57°34' E 011°40'0 0.1
2015-Mar-02 14:32N 57°34' E 011°40'0 0.0
2015-Mar-02 13:32N 57°34' E 011°40'0 0.0
2015-Mar-02 12:32N 57°34' E 011°40'5 5.1
2015-Mar-02 11:33N 57°36' E 011°32'1111.1
2015-Mar-02 10:33N 57°42' E 011°14'1210.5
2015-Mar-02 09:23N 57°47' E 010°53'910.4
2015-Mar-02 08:31N 57°48' E 010°36'7512.3
2015-Mar-02 02:24N 57°13' E 008°32'10212.8
2015-Mar-01 18:26N 55°39' E 007°20'1011.9
2015-Mar-01 17:34N 55°29' E 007°22'10 9.6
2015-Mar-01 16:33N 55°19' E 007°23'1110.6
2015-Mar-01 15:33N 55°09' E 007°25'1312.2
2015-Mar-01 14:30N 54°56' E 007°26'1111.8
2015-Mar-01 13:33N 54°45' E 007°28'1211.9
2015-Mar-01 12:33N 54°33' E 007°29'1212.2
2015-Mar-01 11:33N 54°21' E 007°31'1211.9
2015-Mar-01 10:33N 54°10' E 007°38'4 4.2
2015-Mar-01 09:33N 54°09' E 007°31'1313.1
2015-Mar-01 08:33N 54°09' E 007°09'3213.1
2015-Mar-01 06:07N 54°08' E 006°15'712.8
2015-Mar-01 05:32N 54°07' E 006°02'1312.9
2015-Mar-01 04:33N 54°05' E 005°41'1312.6
2015-Mar-01 03:33N 54°03' E 005°19'1211.6
2015-Mar-01 02:33N 54°02' E 004°60'17311.4
2015-Feb-28 11:22N 51°36' E 002°24'911.6
2015-Feb-28 10:33N 51°29' E 002°14'1313.2
2015-Feb-28 09:33N 51°17' E 002°05'1313.5
2015-Feb-28 08:34N 51°08' E 001°49'1514.6
2015-Feb-28 07:34N 50°58' E 001°32'8911.1
2015-Feb-27 23:33N 50°31' W 000°42'1111.4
2015-Feb-27 22:33N 50°36' W 000°58'3 2.3
2015-Feb-27 21:13N 50°37' W 001°02'0 0.0
2015-Feb-27 20:31N 50°37' W 001°02'0 0.0
2015-Feb-27 19:31N 50°37' W 001°02'0 0.2
2015-Feb-27 18:31N 50°38' W 001°02'0 0.1
2015-Feb-27 17:31N 50°38' W 001°01'0 0.0
2015-Feb-27 16:31N 50°38' W 001°01'0 0.0
2015-Feb-27 15:31N 50°38' W 001°01'0 0.0
2015-Feb-27 14:31N 50°38' W 001°01'0 0.0
2015-Feb-27 13:31N 50°38' W 001°01'0 0.0
2015-Feb-27 12:31N 50°38' W 001°02'0 0.1
2015-Feb-27 11:31N 50°38' W 001°02'0 0.1
2015-Feb-27 10:22N 50°38' W 001°02'0 0.0
2015-Feb-27 09:31N 50°38' W 001°02'0 0.0
2015-Feb-27 08:31N 50°38' W 001°02'0 0.0
2015-Feb-27 07:31N 50°38' W 001°02'0 0.0
2015-Feb-27 06:31N 50°38' W 001°02'0 0.2
2015-Feb-27 05:31N 50°38' W 001°01'0 0.1
2015-Feb-27 04:31N 50°38' W 001°01'0 0.0
2015-Feb-27 03:31N 50°38' W 001°01'0 0.0
2015-Feb-27 02:31N 50°38' W 001°01'0 0.0
2015-Feb-27 01:31N 50°38' W 001°01'0 0.0
2015-Feb-27 00:31N 50°38' W 001°01'0 0.0
2015-Feb-26 23:31N 50°38' W 001°01'0 0.1
2015-Feb-26 22:31N 50°38' W 001°02'0 0.1
2015-Feb-26 21:31N 50°38' W 001°02'0 0.0
2015-Feb-26 20:31N 50°38' W 001°02'0 0.0
2015-Feb-26 19:31N 50°38' W 001°02'0 0.0
2015-Feb-26 18:31N 50°38' W 001°02'0 0.2
2015-Feb-26 17:31N 50°38' W 001°01'0 0.1
2015-Feb-26 16:31N 50°38' W 001°01'0 0.0
2015-Feb-26 15:31N 50°38' W 001°01'0 0.0
2015-Feb-26 14:31N 50°38' W 001°01'0 0.0
2015-Feb-26 13:31N 50°38' W 001°01'0 0.0
2015-Feb-26 12:28N 50°38' W 001°01'0 0.0
2015-Feb-26 11:31N 50°38' W 001°01'0 0.0
2015-Feb-26 10:31N 50°38' W 001°01'0 0.2
2015-Feb-26 09:31N 50°38' W 001°02'0 0.1
2015-Feb-26 08:22N 50°37' W 001°02'0 0.0
2015-Feb-26 07:31N 50°37' W 001°02'0 0.0
2015-Feb-26 06:31N 50°37' W 001°02'0 0.0
2015-Feb-26 05:31N 50°37' W 001°02'0 0.2
2015-Feb-26 04:31N 50°38' W 001°02'0 0.1
2015-Feb-26 03:31N 50°38' W 001°01'0 0.0
2015-Feb-26 02:31N 50°38' W 001°01'0 0.0
2015-Feb-26 01:31N 50°38' W 001°01'0 0.0
2015-Feb-26 00:31N 50°38' W 001°01'0 0.0
2015-Feb-25 23:31N 50°38' W 001°01'0 0.0
2015-Feb-25 22:31N 50°38' W 001°01'0 0.1
2015-Feb-25 21:31N 50°38' W 001°02'0 0.1
2015-Feb-25 20:31N 50°37' W 001°02'0 0.0
2015-Feb-25 19:31N 50°37' W 001°02'0 0.0
2015-Feb-25 18:31N 50°37' W 001°02'0 0.0
2015-Feb-25 17:31N 50°37' W 001°02'0 0.0
2015-Feb-25 16:31N 50°37' W 001°02'0 0.2
2015-Feb-25 15:31N 50°38' W 001°01'0 0.0
2015-Feb-25 14:31N 50°38' W 001°01'0 0.0
2015-Feb-25 13:31N 50°38' W 001°01'0 0.0
2015-Feb-25 12:31N 50°38' W 001°01'0 0.0
2015-Feb-25 11:31N 50°38' W 001°01'0 0.0
2015-Feb-25 10:31N 50°38' W 001°01'0 0.0
2015-Feb-25 09:31N 50°38' W 001°01'0 0.2
2015-Feb-25 08:31N 50°37' W 001°02'0 0.0
2015-Feb-25 07:31N 50°37' W 001°02'0 0.0
2015-Feb-25 06:31N 50°37' W 001°02'0 0.0
2015-Feb-25 05:31N 50°37' W 001°02'0 0.0
2015-Feb-25 04:31N 50°37' W 001°02'0 0.3
2015-Feb-25 03:31N 50°38' W 001°01'0 0.0
2015-Feb-25 02:31N 50°38' W 001°01'0 0.0
2015-Feb-25 01:31N 50°38' W 001°01'0 0.0
2015-Feb-25 00:28N 50°38' W 001°01'0 0.0
2015-Feb-24 23:31N 50°38' W 001°01'0 0.0
2015-Feb-24 22:31N 50°38' W 001°01'0 0.0
2015-Feb-24 21:31N 50°38' W 001°01'0 0.2
2015-Feb-24 20:31N 50°38' W 001°02'0 0.0
2015-Feb-24 19:31N 50°38' W 001°02'0 0.0
2015-Feb-24 18:31N 50°38' W 001°02'0 0.0
2015-Feb-24 17:31N 50°38' W 001°02'0 0.0
2015-Feb-24 16:31N 50°38' W 001°02'0 0.2
2015-Feb-24 15:31N 50°38' W 001°01'0 0.1
2015-Feb-24 14:28N 50°38' W 001°01'0 0.0
2015-Feb-24 13:31N 50°38' W 001°01'0 0.0
2015-Feb-24 12:31N 50°38' W 001°01'0 0.0
2015-Feb-24 11:31N 50°38' W 001°01'0 0.0
2015-Feb-24 10:31N 50°38' W 001°01'0 0.1
2015-Feb-24 09:33N 50°38' W 001°01'3 3.0
2015-Feb-24 08:33N 50°37' W 000°57'4 4.1
2015-Feb-24 07:33N 50°36' W 000°51'1 1.1
2015-Feb-24 06:33N 50°35' W 000°52'4 3.7
2015-Feb-24 05:33N 50°34' W 000°58'4 3.9
2015-Feb-24 04:33N 50°32' W 001°03'1 1.1
2015-Feb-24 03:33N 50°33' W 001°03'3 2.7
2015-Feb-24 02:33N 50°34' W 000°59'2 2.1
2015-Feb-24 01:33N 50°34' W 000°55'2 1.6
2015-Feb-24 00:33N 50°34' W 000°53'1 0.8
2015-Feb-23 23:33N 50°34' W 000°51'0 0.1
2015-Feb-23 22:33N 50°34' W 000°51'0 0.3
2015-Feb-23 21:33N 50°34' W 000°51'2 1.9
2015-Feb-23 20:33N 50°35' W 000°49'0 0.3
2015-Feb-23 19:33N 50°36' W 000°48'5 4.5
2015-Feb-23 18:33N 50°34' W 000°55'4 4.1
2015-Feb-23 17:33N 50°34' W 001°01'3 3.2
2015-Feb-23 16:30N 50°37' W 001°02'0 0.2
2015-Feb-23 15:33N 50°38' W 001°02'0 0.3
2015-Feb-23 14:33N 50°38' W 001°01'0 0.0
2015-Feb-23 13:33N 50°38' W 001°01'0 0.0
2015-Feb-23 12:33N 50°38' W 001°01'0 0.1
2015-Feb-23 11:33N 50°38' W 001°01'0 0.0
2015-Feb-23 10:33N 50°38' W 001°01'0 0.0
2015-Feb-23 09:33N 50°38' W 001°01'0 0.1
2015-Feb-23 08:33N 50°38' W 001°02'0 0.1
2015-Feb-23 07:33N 50°38' W 001°02'0 0.2
2015-Feb-23 06:33N 50°38' W 001°02'3 3.0
2015-Feb-23 05:33N 50°35' W 001°03'3 2.7
2015-Feb-23 04:33N 50°34' W 000°59'1 1.4
2015-Feb-23 03:33N 50°34' W 000°57'0 0.2
2015-Feb-23 02:33N 50°34' W 000°57'  

Dump ship's entire track history